createdAt,value
2022-12-22T00:31:02.580Z,995.45
2022-12-22T00:31:42.911Z,995.42
2022-12-22T00:32:23.409Z,995.45
2022-12-22T00:33:03.908Z,995.42
2022-12-22T00:33:44.383Z,995.4
2022-12-22T00:34:29.352Z,995.41
2022-12-22T00:35:05.418Z,995.39
2022-12-22T00:35:45.944Z,995.38
2022-12-22T00:36:26.367Z,995.35
2022-12-22T00:37:06.860Z,995.38
2022-12-22T00:37:47.313Z,995.36
2022-12-22T00:38:27.818Z,995.36
2022-12-22T00:39:08.306Z,995.35
2022-12-22T00:39:48.768Z,995.34
2022-12-22T00:40:29.288Z,995.31
2022-12-22T00:41:09.709Z,995.32
2022-12-22T00:41:50.229Z,995.3
2022-12-22T00:42:30.744Z,995.26
2022-12-22T00:43:11.277Z,995.28
2022-12-22T00:43:51.711Z,995.32
2022-12-22T00:44:38.943Z,995.28
2022-12-22T00:45:19.468Z,995.34
2022-12-22T00:45:59.984Z,995.31
2022-12-22T00:46:40.476Z,995.29
2022-12-22T00:47:20.975Z,995.3
2022-12-22T00:48:01.496Z,995.32
2022-12-22T00:48:41.948Z,995.32
2022-12-22T00:49:22.452Z,995.3
2022-12-22T00:50:02.978Z,995.28
2022-12-22T00:50:43.467Z,995.28
2022-12-22T00:51:23.921Z,995.21
2022-12-22T00:52:04.461Z,995.26
2022-12-22T00:52:44.961Z,995.27
2022-12-22T00:53:25.441Z,995.23
2022-12-22T00:54:05.966Z,995.24
2022-12-22T00:54:46.437Z,995.16
2022-12-22T00:55:26.973Z,995.21
2022-12-22T00:56:07.455Z,995.2
2022-12-22T00:56:47.930Z,995.18
2022-12-22T00:57:28.481Z,995.22
2022-12-22T00:58:08.917Z,995.21
2022-12-22T00:58:49.416Z,995.19
2022-12-22T00:59:29.940Z,995.15
2022-12-22T01:00:10.418Z,995.11
2022-12-22T01:00:50.900Z,995.12
2022-12-22T01:01:31.491Z,995.13
2022-12-22T01:02:12.173Z,995.07
2022-12-22T01:02:52.519Z,995.07
2022-12-22T01:03:32.954Z,995.05
2022-12-22T01:04:13.389Z,995.09
2022-12-22T01:04:53.916Z,995.06
2022-12-22T01:05:34.358Z,995.08
2022-12-22T01:06:14.840Z,995.06
2022-12-22T01:06:55.311Z,995.08
2022-12-22T01:09:08.178Z,995.03
2022-12-22T01:11:36.140Z,995.04
2022-12-22T01:12:16.637Z,995.03
2022-12-22T01:12:57.131Z,994.99
2022-12-22T01:15:10.333Z,994.98
2022-12-22T01:15:50.905Z,994.93
2022-12-22T01:16:31.499Z,994.94
2022-12-22T01:17:12.643Z,994.97
2022-12-22T01:17:53.176Z,994.93
2022-12-22T01:18:35.595Z,994.92
2022-12-22T01:19:16.132Z,994.94
2022-12-22T01:19:58.364Z,994.91
2022-12-22T01:20:39.593Z,994.91
2022-12-22T01:21:20.126Z,994.91
2022-12-22T01:22:00.653Z,994.88
2022-12-22T01:22:41.151Z,994.88
2022-12-22T01:23:21.571Z,994.89
2022-12-22T01:24:02.100Z,994.84
2022-12-22T01:24:42.670Z,994.83
2022-12-22T01:25:23.159Z,994.81
2022-12-22T01:26:03.713Z,994.81
2022-12-22T01:26:44.175Z,994.79
2022-12-22T01:27:24.758Z,994.79
2022-12-22T01:28:05.268Z,994.78
2022-12-22T01:28:45.711Z,994.76
2022-12-22T01:29:26.192Z,994.78
2022-12-22T01:30:06.693Z,994.77
2022-12-22T01:30:47.310Z,994.79
2022-12-22T01:31:27.797Z,994.75
2022-12-22T01:32:08.256Z,994.73
2022-12-22T01:32:49.718Z,994.71
2022-12-22T01:33:30.279Z,994.69
2022-12-22T01:34:10.712Z,994.67
2022-12-22T01:34:51.220Z,994.66
2022-12-22T01:35:31.696Z,994.67
2022-12-22T01:36:12.237Z,994.66
2022-12-22T01:36:52.807Z,994.65
2022-12-22T01:37:33.258Z,994.58
2022-12-22T01:38:13.776Z,994.55
2022-12-22T01:38:54.414Z,994.55
2022-12-22T01:39:34.905Z,994.56
2022-12-22T01:40:15.385Z,994.56
2022-12-22T01:40:55.879Z,994.54
2022-12-22T01:41:36.396Z,994.52
2022-12-22T01:42:16.958Z,994.48
2022-12-22T01:42:57.437Z,994.52
2022-12-22T01:43:37.915Z,994.48
2022-12-22T01:44:18.405Z,994.51
2022-12-22T01:44:58.930Z,994.47
2022-12-22T01:45:39.417Z,994.47
2022-12-22T01:46:19.952Z,994.47
2022-12-22T01:47:00.457Z,994.46
2022-12-22T01:47:40.887Z,994.45
2022-12-22T01:48:21.400Z,994.45
2022-12-22T01:49:01.912Z,994.45
2022-12-22T01:49:44.123Z,994.46
2022-12-22T01:50:24.651Z,994.45
2022-12-22T01:51:05.155Z,994.45
2022-12-22T01:51:45.680Z,994.44
2022-12-22T01:52:26.177Z,994.44
2022-12-22T01:53:06.657Z,994.45
2022-12-22T01:53:47.210Z,994.45
2022-12-22T01:54:27.765Z,994.4
2022-12-22T01:55:08.239Z,994.37
2022-12-22T01:55:48.713Z,994.39
2022-12-22T01:56:29.249Z,994.35
2022-12-22T01:57:09.705Z,994.3
2022-12-22T01:57:50.227Z,994.29
2022-12-22T01:58:30.680Z,994.27
2022-12-22T01:59:11.236Z,994.27
2022-12-22T01:59:51.722Z,994.29
2022-12-22T02:00:32.163Z,994.28
2022-12-22T02:01:12.688Z,994.28
2022-12-22T02:01:53.253Z,994.3
2022-12-22T02:02:33.781Z,994.29
2022-12-22T02:03:14.233Z,994.24
2022-12-22T02:03:54.749Z,994.22
2022-12-22T02:04:35.197Z,994.24
2022-12-22T02:05:15.691Z,994.24
2022-12-22T02:05:56.165Z,994.23
2022-12-22T02:06:36.739Z,994.23
2022-12-22T02:07:17.184Z,994.16
2022-12-22T02:07:57.673Z,994.17
2022-12-22T02:08:38.202Z,994.13
2022-12-22T02:09:18.666Z,994.12
2022-12-22T02:09:59.170Z,994.13
2022-12-22T02:10:39.695Z,994.1
2022-12-22T02:11:20.234Z,994.1
2022-12-22T02:12:00.691Z,994.06
2022-12-22T02:12:41.249Z,994.09
2022-12-22T02:13:21.718Z,994.08
2022-12-22T02:14:02.219Z,994.06
2022-12-22T02:14:42.701Z,994.06
2022-12-22T02:15:23.249Z,994.08
2022-12-22T02:16:03.873Z,994.03
2022-12-22T02:16:44.240Z,994.04
2022-12-22T02:17:24.727Z,994.04
2022-12-22T02:18:05.205Z,994.02
2022-12-22T02:18:45.706Z,994.01
2022-12-22T02:19:26.233Z,994
2022-12-22T02:20:06.723Z,993.96
2022-12-22T02:20:47.248Z,993.98
2022-12-22T02:21:27.686Z,993.95
2022-12-22T02:22:08.183Z,993.97
2022-12-22T02:22:48.793Z,993.95
2022-12-22T02:23:29.213Z,993.92
2022-12-22T02:24:09.707Z,993.9
2022-12-22T02:24:50.193Z,993.89
2022-12-22T02:25:30.680Z,993.89
2022-12-22T02:26:11.240Z,993.89
2022-12-22T02:26:51.781Z,993.86
2022-12-22T02:27:32.261Z,993.83
2022-12-22T02:28:12.791Z,993.83
2022-12-22T02:28:53.254Z,993.83
2022-12-22T02:29:33.798Z,993.78
2022-12-22T02:30:14.247Z,993.78
2022-12-22T02:30:54.820Z,993.74
2022-12-22T02:31:35.260Z,993.74
2022-12-22T02:32:15.754Z,993.71
2022-12-22T02:32:56.190Z,993.71
2022-12-22T02:33:36.712Z,993.71
2022-12-22T02:34:17.149Z,993.68
2022-12-22T02:34:57.661Z,993.65
2022-12-22T02:35:38.227Z,993.71
2022-12-22T02:36:18.644Z,993.64
2022-12-22T02:37:00.678Z,993.64
2022-12-22T02:37:41.211Z,993.65
2022-12-22T02:38:21.678Z,993.58
2022-12-22T02:39:02.131Z,993.6
2022-12-22T02:39:42.608Z,993.58
2022-12-22T02:41:03.571Z,993.56
2022-12-22T02:41:44.053Z,993.52
2022-12-22T02:42:24.557Z,993.55
2022-12-22T02:43:05.019Z,993.52
2022-12-22T02:43:45.517Z,993.53
2022-12-22T02:44:26.010Z,993.5
2022-12-22T02:45:06.500Z,993.46
2022-12-22T02:45:47.013Z,993.48
2022-12-22T02:46:27.477Z,993.45
2022-12-22T02:47:07.961Z,993.44
2022-12-22T02:47:48.435Z,993.51
2022-12-22T02:48:28.980Z,993.46
2022-12-22T02:49:09.446Z,993.45
2022-12-22T02:49:49.948Z,993.45
2022-12-22T02:50:30.451Z,993.42
2022-12-22T02:51:10.974Z,993.41
2022-12-22T02:52:32.007Z,993.41
2022-12-22T02:54:45.067Z,993.39
2022-12-22T02:55:25.523Z,993.38
2022-12-22T02:56:05.989Z,993.38
2022-12-22T02:56:46.474Z,993.37
2022-12-22T02:57:26.938Z,993.4
2022-12-22T02:58:07.430Z,993.35
2022-12-22T02:58:47.920Z,993.39
2022-12-22T02:59:28.400Z,993.41
2022-12-22T03:00:49.397Z,993.38
2022-12-22T03:01:29.955Z,993.33
2022-12-22T03:02:10.402Z,993.34
2022-12-22T03:02:51.101Z,993.33
2022-12-22T03:03:31.527Z,993.31
2022-12-22T03:04:11.873Z,993.3
2022-12-22T03:04:52.320Z,993.27
2022-12-22T03:05:32.813Z,993.24
2022-12-22T03:06:13.407Z,993.24
2022-12-22T03:06:53.828Z,993.24
2022-12-22T03:07:34.292Z,993.24
2022-12-22T03:08:14.765Z,993.22
2022-12-22T03:08:55.249Z,993.23
2022-12-22T03:09:35.729Z,993.21
2022-12-22T03:10:16.185Z,993.2
2022-12-22T03:10:56.674Z,993.23
2022-12-22T03:11:37.189Z,993.2
2022-12-22T03:12:17.679Z,993.21
2022-12-22T03:12:58.185Z,993.2
2022-12-22T03:15:10.791Z,993.17
2022-12-22T03:15:51.295Z,993.16
2022-12-22T03:16:31.817Z,993.17
2022-12-22T03:17:12.279Z,993.17
2022-12-22T03:17:52.745Z,993.16
2022-12-22T03:18:33.820Z,993.15
2022-12-22T03:19:15.159Z,993.12
2022-12-22T03:19:55.642Z,993.07
2022-12-22T03:20:36.803Z,993.05
2022-12-22T03:21:17.313Z,992.99
2022-12-22T03:21:57.748Z,993.03
2022-12-22T03:22:38.251Z,992.97
2022-12-22T03:23:18.760Z,992.96
2022-12-22T03:23:59.242Z,993.03
2022-12-22T03:24:39.729Z,992.96
2022-12-22T03:25:20.208Z,992.95
2022-12-22T03:26:00.722Z,992.95
2022-12-22T03:26:41.183Z,992.96
2022-12-22T03:27:21.659Z,992.89
2022-12-22T03:28:02.197Z,992.87
2022-12-22T03:28:42.669Z,992.92
2022-12-22T03:29:23.167Z,992.91
2022-12-22T03:30:44.125Z,992.88
2022-12-22T03:31:24.749Z,992.87
2022-12-22T03:32:05.178Z,992.87
2022-12-22T03:32:45.665Z,992.83
2022-12-22T03:33:26.212Z,992.88
2022-12-22T03:34:06.677Z,992.85
2022-12-22T03:34:47.159Z,992.85
2022-12-22T03:35:27.699Z,992.83
2022-12-22T03:36:08.157Z,992.84
2022-12-22T03:36:48.643Z,992.87
2022-12-22T03:37:29.147Z,992.86
2022-12-22T03:38:09.651Z,992.83
2022-12-22T03:38:51.036Z,992.83
2022-12-22T03:39:31.536Z,992.88
2022-12-22T03:40:12.604Z,992.89
2022-12-22T03:40:53.068Z,992.87
2022-12-22T03:41:33.548Z,992.82
2022-12-22T03:42:14.068Z,992.83
2022-12-22T03:42:54.597Z,992.83
2022-12-22T03:43:35.084Z,992.86
2022-12-22T03:44:15.578Z,992.84
2022-12-22T03:44:56.044Z,992.81
2022-12-22T03:45:36.543Z,992.8
2022-12-22T03:46:17.122Z,992.83
2022-12-22T03:46:57.648Z,992.84
2022-12-22T03:47:38.100Z,992.79
2022-12-22T03:48:18.563Z,992.8
2022-12-22T03:48:59.022Z,992.78
2022-12-22T03:49:39.530Z,992.75
2022-12-22T03:50:20.028Z,992.75
2022-12-22T03:51:00.581Z,992.72
2022-12-22T03:51:41.084Z,992.65
2022-12-22T03:52:21.616Z,992.61
2022-12-22T03:53:02.091Z,992.58
2022-12-22T03:54:23.065Z,992.47
2022-12-22T03:55:03.584Z,992.48
2022-12-22T03:55:44.093Z,992.41
2022-12-22T03:56:24.578Z,992.45
2022-12-22T03:57:05.115Z,992.48
2022-12-22T03:57:45.620Z,992.4
2022-12-22T03:58:26.115Z,992.42
2022-12-22T03:59:06.759Z,992.41
2022-12-22T03:59:47.240Z,992.37
2022-12-22T04:00:27.767Z,992.4
2022-12-22T04:01:08.384Z,992.35
2022-12-22T04:01:48.941Z,992.35
2022-12-22T04:02:29.388Z,992.33
2022-12-22T04:03:09.913Z,992.38
2022-12-22T04:03:50.243Z,992.34
2022-12-22T04:04:30.703Z,992.31
2022-12-22T04:05:11.195Z,992.31
2022-12-22T04:05:51.675Z,992.32
2022-12-22T04:06:32.170Z,992.31
2022-12-22T04:07:12.676Z,992.28
2022-12-22T04:07:53.224Z,992.29
2022-12-22T04:08:33.695Z,992.3
2022-12-22T04:09:54.713Z,992.31
2022-12-22T04:10:35.206Z,992.25
2022-12-22T04:11:16.293Z,992.22
2022-12-22T04:12:37.279Z,992.23
2022-12-22T04:13:17.817Z,992.24
2022-12-22T04:14:00.930Z,992.17
2022-12-22T04:14:41.417Z,992.2
2022-12-22T04:15:21.918Z,992.22
2022-12-22T04:16:02.456Z,992.22
2022-12-22T04:16:42.993Z,992.22
2022-12-22T04:17:23.439Z,992.19
2022-12-22T04:18:03.930Z,992.19
2022-12-22T04:18:44.405Z,992.2
2022-12-22T04:19:24.921Z,992.16
2022-12-22T04:20:05.436Z,992.15
2022-12-22T04:20:45.929Z,992.14
2022-12-22T04:21:26.446Z,992.16
2022-12-22T04:22:06.932Z,992.13
2022-12-22T04:22:47.456Z,992.13
2022-12-22T04:23:27.951Z,992.13
2022-12-22T04:24:08.447Z,992.1
2022-12-22T04:24:48.967Z,992.12
2022-12-22T04:25:29.454Z,992.15
2022-12-22T04:26:09.928Z,992.1
2022-12-22T04:26:50.447Z,992.12
2022-12-22T04:27:30.945Z,992.11
2022-12-22T04:28:11.402Z,992.08
2022-12-22T04:28:51.970Z,992.04
2022-12-22T04:29:32.371Z,992.06
2022-12-22T04:30:12.856Z,992.03
2022-12-22T04:30:53.312Z,992.05
2022-12-22T04:31:33.798Z,992.06
2022-12-22T04:32:54.822Z,992.11
2022-12-22T04:33:35.303Z,992.04
2022-12-22T04:34:15.813Z,992.1
2022-12-22T04:34:56.309Z,992.11
2022-12-22T04:35:36.821Z,992.09
2022-12-22T04:36:17.365Z,992.1
2022-12-22T04:37:04.525Z,992.12
2022-12-22T04:37:38.396Z,992.09
2022-12-22T04:38:18.881Z,992.11
2022-12-22T04:38:59.417Z,992.1
2022-12-22T04:39:39.926Z,992.09
2022-12-22T04:40:20.423Z,992.06
2022-12-22T04:41:00.931Z,992.02
2022-12-22T04:41:41.433Z,992.06
2022-12-22T04:42:21.917Z,992.02
2022-12-22T04:43:02.468Z,992.04
2022-12-22T04:43:42.884Z,992.02
2022-12-22T04:44:23.378Z,991.99
2022-12-22T04:45:03.866Z,992
2022-12-22T04:45:44.453Z,991.98
2022-12-22T04:46:24.955Z,991.96
2022-12-22T04:47:05.400Z,991.97
2022-12-22T04:47:45.884Z,991.97
2022-12-22T04:48:26.383Z,992
2022-12-22T04:49:06.897Z,992.01
2022-12-22T04:49:47.359Z,992
2022-12-22T04:50:27.867Z,991.95
2022-12-22T04:51:08.360Z,991.97
2022-12-22T04:51:48.838Z,991.96
2022-12-22T04:52:29.347Z,991.99
2022-12-22T04:53:09.829Z,991.95
2022-12-22T04:53:50.309Z,991.92
2022-12-22T04:54:30.904Z,991.9
2022-12-22T04:55:11.357Z,991.88
2022-12-22T04:55:51.869Z,991.88
2022-12-22T04:56:32.391Z,991.86
2022-12-22T04:57:12.895Z,991.87
2022-12-22T04:57:53.414Z,991.86
2022-12-22T04:58:33.940Z,991.9
2022-12-22T04:59:14.423Z,991.87
2022-12-22T04:59:54.899Z,991.86
2022-12-22T05:00:35.451Z,991.91
2022-12-22T05:01:16.233Z,991.93
2022-12-22T05:01:56.780Z,991.91
2022-12-22T05:02:37.296Z,991.94
2022-12-22T05:03:17.689Z,991.97
2022-12-22T05:03:58.089Z,991.91
2022-12-22T05:04:38.632Z,991.92
2022-12-22T05:05:19.105Z,991.83
2022-12-22T05:05:59.613Z,991.85
2022-12-22T05:06:40.104Z,991.84
2022-12-22T05:07:20.611Z,991.84
2022-12-22T05:08:01.172Z,991.81
2022-12-22T05:08:41.573Z,991.79
2022-12-22T05:09:22.064Z,991.77
2022-12-22T05:10:43.057Z,991.75
2022-12-22T05:11:23.602Z,991.8
2022-12-22T05:12:04.092Z,991.8
2022-12-22T05:12:44.607Z,991.7
2022-12-22T05:13:25.129Z,991.73
2022-12-22T05:14:07.499Z,991.75
2022-12-22T05:14:46.075Z,991.76
2022-12-22T05:15:26.569Z,991.77
2022-12-22T05:16:07.159Z,991.73
2022-12-22T05:16:47.679Z,991.71
2022-12-22T05:17:28.122Z,991.71
2022-12-22T05:18:08.610Z,991.69
2022-12-22T05:18:49.138Z,991.63
2022-12-22T05:19:30.938Z,991.67
2022-12-22T05:20:10.141Z,991.67
2022-12-22T05:20:50.702Z,991.61
2022-12-22T05:21:31.300Z,991.58
2022-12-22T05:22:11.755Z,991.61
2022-12-22T05:23:32.742Z,991.65
2022-12-22T05:24:13.189Z,991.66
2022-12-22T05:24:53.714Z,991.65
2022-12-22T05:25:35.465Z,991.67
2022-12-22T05:26:14.790Z,991.7
2022-12-22T05:26:55.162Z,991.73
2022-12-22T05:27:35.705Z,991.73
2022-12-22T05:28:16.221Z,991.76
2022-12-22T05:28:56.718Z,991.76
2022-12-22T05:29:37.248Z,991.72
2022-12-22T05:30:17.751Z,991.76
2022-12-22T05:30:58.271Z,991.74
2022-12-22T05:31:43.306Z,991.7
2022-12-22T05:32:19.239Z,991.72
2022-12-22T05:32:59.733Z,991.72
2022-12-22T05:33:40.247Z,991.74
2022-12-22T05:34:20.753Z,991.72
2022-12-22T05:35:01.232Z,991.75
2022-12-22T05:35:41.728Z,991.7
2022-12-22T05:36:22.225Z,991.67
2022-12-22T05:37:02.732Z,991.72
2022-12-22T05:37:43.240Z,991.72
2022-12-22T05:38:23.773Z,991.75
2022-12-22T05:39:04.263Z,991.76
2022-12-22T05:39:44.757Z,991.72
2022-12-22T05:40:25.283Z,991.7
2022-12-22T05:41:05.813Z,991.73
2022-12-22T05:41:46.295Z,991.69
2022-12-22T05:42:26.825Z,991.68
2022-12-22T05:43:07.326Z,991.7
2022-12-22T05:43:47.870Z,991.69
2022-12-22T05:44:28.382Z,991.69
2022-12-22T05:45:08.878Z,991.71
2022-12-22T05:45:49.510Z,991.69
2022-12-22T05:46:29.931Z,991.7
2022-12-22T05:47:10.478Z,991.69
2022-12-22T05:47:50.982Z,991.63
2022-12-22T05:48:37.299Z,991.65
2022-12-22T05:49:11.975Z,991.62
2022-12-22T05:49:52.467Z,991.62
2022-12-22T05:51:13.549Z,991.64
2022-12-22T05:51:53.997Z,991.6
2022-12-22T05:52:34.538Z,991.64
2022-12-22T06:32:15.726Z,992.13
2022-12-22T06:32:56.408Z,992.18
2022-12-22T06:33:36.844Z,992.23
2022-12-22T06:34:17.508Z,992.2
2022-12-22T06:34:58.451Z,992.24
2022-12-22T06:35:38.997Z,992.29
2022-12-22T06:36:19.496Z,992.32
2022-12-22T06:36:59.986Z,992.36
2022-12-22T06:37:40.455Z,992.39
2022-12-22T06:38:20.999Z,992.35
2022-12-22T06:39:01.473Z,992.37
2022-12-22T06:39:41.999Z,992.36
2022-12-22T06:40:22.512Z,992.33
2022-12-22T06:41:03.904Z,992.4
2022-12-22T06:41:43.593Z,992.39
2022-12-22T06:42:24.152Z,992.42
2022-12-22T06:43:08.633Z,992.44
2022-12-22T06:43:45.399Z,992.4
2022-12-22T06:44:26.693Z,992.44
2022-12-22T06:45:07.264Z,992.41
2022-12-22T06:45:47.779Z,992.43
2022-12-22T06:46:28.379Z,992.43
2022-12-22T06:47:08.854Z,992.47
2022-12-22T06:47:49.383Z,992.48
2022-12-22T06:48:29.899Z,992.45
2022-12-22T06:49:10.491Z,992.45
2022-12-22T06:49:51.007Z,992.53
2022-12-22T06:50:31.536Z,992.48
2022-12-22T06:51:12.143Z,992.52
2022-12-22T06:51:52.786Z,992.55
2022-12-22T06:52:33.282Z,992.56
2022-12-22T06:53:14.469Z,992.58
2022-12-22T06:53:55.000Z,992.58
2022-12-22T06:54:35.565Z,992.59
2022-12-22T06:55:16.118Z,992.62
2022-12-22T06:55:56.580Z,992.6
2022-12-22T06:56:37.462Z,992.6
2022-12-22T06:57:17.730Z,992.59
2022-12-22T06:57:58.347Z,992.62
2022-12-22T06:58:38.913Z,992.62
2022-12-22T06:59:19.403Z,992.61
2022-12-22T07:00:00.270Z,992.65
2022-12-22T07:00:40.785Z,992.66
2022-12-22T07:01:21.425Z,992.63
2022-12-22T07:02:02.046Z,992.65
2022-12-22T07:02:42.539Z,992.67
2022-12-22T07:03:23.190Z,992.64
2022-12-22T07:04:03.545Z,992.64
2022-12-22T07:04:44.064Z,992.66
2022-12-22T07:05:24.535Z,992.64
2022-12-22T07:06:05.035Z,992.69
2022-12-22T07:06:45.609Z,992.72
2022-12-22T07:07:26.151Z,992.76
2022-12-22T07:08:08.983Z,992.77
2022-12-22T07:08:47.651Z,992.8
2022-12-22T07:09:28.157Z,992.84
2022-12-22T07:10:08.700Z,992.85
2022-12-22T07:10:49.203Z,992.88
2022-12-22T07:11:29.746Z,992.88
2022-12-22T07:12:10.263Z,992.91
2022-12-22T07:12:50.792Z,992.92
2022-12-22T07:13:31.278Z,992.91
2022-12-22T07:14:12.192Z,992.98
2022-12-22T07:14:52.715Z,993
2022-12-22T07:15:33.299Z,993.04
2022-12-22T07:16:13.858Z,993.02
2022-12-22T07:16:54.289Z,993.03
2022-12-22T07:17:35.150Z,993.03
2022-12-22T07:18:15.671Z,993.1
2022-12-22T07:18:56.248Z,993.07
2022-12-22T07:19:36.709Z,993.1
2022-12-22T07:20:17.926Z,993.05
2022-12-22T07:20:58.447Z,993.09
2022-12-22T07:21:38.947Z,993.11
2022-12-22T07:22:22.876Z,993.1
2022-12-22T07:23:00.552Z,993.14
2022-12-22T07:23:41.105Z,993.19
2022-12-22T07:24:21.629Z,993.22
2022-12-22T07:25:02.169Z,993.22
2022-12-22T07:25:42.778Z,993.21
2022-12-22T07:26:23.374Z,993.24
2022-12-22T07:27:03.807Z,993.26
2022-12-22T07:27:44.317Z,993.27
2022-12-22T07:28:24.900Z,993.26
2022-12-22T07:29:05.317Z,993.28
2022-12-22T07:29:45.958Z,993.31
2022-12-22T07:30:26.427Z,993.28
2022-12-22T07:31:06.968Z,993.34
2022-12-22T07:31:47.700Z,993.3
2022-12-22T07:32:28.111Z,993.36
2022-12-22T07:33:08.552Z,993.37
2022-12-22T07:34:29.741Z,993.38
2022-12-22T07:35:10.485Z,993.4
2022-12-22T07:35:51.032Z,993.42
2022-12-22T07:36:31.658Z,993.46
2022-12-22T07:37:12.223Z,993.44
2022-12-22T07:37:52.727Z,993.45
2022-12-22T07:38:33.237Z,993.48
2022-12-22T07:39:13.873Z,993.48
2022-12-22T07:39:55.218Z,993.47
2022-12-22T07:40:41.298Z,993.53
2022-12-22T07:41:16.249Z,993.55
2022-12-22T07:41:56.769Z,993.5
2022-12-22T07:42:37.254Z,993.55
2022-12-22T07:43:17.826Z,993.56
2022-12-22T07:43:58.351Z,993.58
2022-12-22T07:44:38.857Z,993.56
2022-12-22T07:45:19.499Z,993.58
2022-12-22T07:46:00.204Z,993.55
2022-12-22T07:46:40.637Z,993.57
2022-12-22T07:47:21.142Z,993.6
2022-12-22T07:48:01.667Z,993.59
2022-12-22T07:48:42.220Z,993.59
2022-12-22T07:50:03.470Z,993.65
2022-12-22T07:50:43.967Z,993.66
2022-12-22T07:51:24.515Z,993.68
2022-12-22T07:52:05.070Z,993.73
2022-12-22T07:52:45.593Z,993.77
2022-12-22T07:53:26.231Z,993.74
2022-12-22T07:54:06.718Z,993.78
2022-12-22T07:54:47.312Z,993.73
2022-12-22T07:55:27.839Z,993.7
2022-12-22T07:56:08.380Z,993.71
2022-12-22T07:56:48.918Z,993.66
2022-12-22T07:57:29.705Z,993.7
2022-12-22T07:58:10.212Z,993.68
2022-12-22T07:58:50.729Z,993.76
2022-12-22T07:59:31.636Z,993.75
2022-12-22T08:00:12.280Z,993.71
2022-12-22T08:00:52.805Z,993.74
2022-12-22T08:01:33.563Z,993.74
2022-12-22T08:02:14.140Z,993.78
2022-12-22T08:02:54.717Z,993.76
2022-12-22T08:03:35.371Z,993.77
2022-12-22T08:04:15.943Z,993.79
2022-12-22T08:04:56.585Z,993.79
2022-12-22T08:05:37.114Z,993.82
2022-12-22T08:06:17.691Z,993.81
2022-12-22T08:07:39.125Z,993.81
2022-12-22T08:08:19.725Z,993.82
2022-12-22T08:09:00.286Z,993.85
2022-12-22T08:09:40.718Z,993.86
2022-12-22T08:10:21.388Z,993.89
2022-12-22T08:11:02.155Z,993.88
2022-12-22T08:11:43.104Z,993.88
2022-12-22T08:12:24.122Z,993.95
2022-12-22T08:13:04.896Z,993.93
2022-12-22T08:13:45.417Z,994.02
2022-12-22T08:14:25.926Z,994.04
2022-12-22T08:15:06.445Z,994.06
2022-12-22T08:15:47.151Z,994.09
2022-12-22T08:16:27.884Z,994.11
2022-12-22T08:17:08.547Z,994.14
2022-12-22T08:17:49.269Z,994.15
2022-12-22T08:18:29.968Z,994.16
2022-12-22T08:19:10.518Z,994.22
2022-12-22T08:19:51.149Z,994.23
2022-12-22T08:20:31.877Z,994.19
2022-12-22T08:21:12.462Z,994.28
2022-12-22T08:22:33.653Z,994.35
2022-12-22T08:23:14.271Z,994.36
2022-12-22T08:23:54.795Z,994.33
2022-12-22T08:24:35.584Z,994.42
2022-12-22T08:25:16.212Z,994.41
2022-12-22T08:25:56.815Z,994.46
2022-12-22T08:26:37.595Z,994.44
2022-12-22T08:27:23.962Z,994.52
2022-12-22T08:27:58.800Z,994.54
2022-12-22T08:28:39.367Z,994.55
2022-12-22T08:29:19.939Z,994.55
2022-12-22T08:30:00.444Z,994.52
2022-12-22T08:30:41.015Z,994.58
2022-12-22T08:31:21.868Z,994.59
2022-12-22T08:32:43.154Z,994.57
2022-12-22T08:33:23.823Z,994.62
2022-12-22T08:34:04.425Z,994.6
2022-12-22T08:34:45.999Z,994.58
2022-12-22T08:35:26.573Z,994.59
2022-12-22T08:36:08.392Z,994.62
2022-12-22T08:36:47.794Z,994.65
2022-12-22T08:37:28.261Z,994.68
2022-12-22T08:38:08.830Z,994.66
2022-12-22T08:38:49.456Z,994.72
2022-12-22T08:39:30.012Z,994.72
2022-12-22T08:40:10.617Z,994.68
2022-12-22T08:40:51.122Z,994.73
2022-12-22T08:41:31.686Z,994.76
2022-12-22T08:42:12.270Z,994.74
2022-12-22T08:42:53.641Z,994.75
2022-12-22T08:43:34.203Z,994.8
2022-12-22T08:44:14.742Z,994.81
2022-12-22T08:44:55.269Z,994.83
2022-12-22T08:45:36.030Z,994.83
2022-12-22T08:46:16.706Z,994.85
2022-12-22T08:46:57.419Z,994.86
2022-12-22T08:47:38.079Z,994.91
2022-12-22T08:48:18.554Z,994.89
2022-12-22T08:48:59.061Z,994.84
2022-12-22T08:50:20.108Z,994.9
2022-12-22T08:51:00.597Z,994.92
2022-12-22T08:51:41.190Z,994.88
2022-12-22T08:52:21.967Z,994.92
2022-12-22T08:53:02.492Z,994.91
2022-12-22T08:54:04.323Z,994.9
2022-12-22T08:54:23.596Z,994.96
2022-12-22T08:55:04.225Z,994.96
2022-12-22T08:57:01.989Z,995.1
2022-12-22T08:59:36.009Z,995.16
2022-12-22T09:00:16.928Z,995.2
2022-12-22T09:00:57.351Z,995.24
2022-12-22T09:01:39.448Z,995.28
2022-12-22T09:03:01.147Z,995.29
2022-12-22T09:03:41.579Z,995.4
2022-12-22T09:04:22.254Z,995.39
2022-12-22T09:05:02.822Z,995.43
2022-12-22T09:05:43.342Z,995.4
2022-12-22T09:06:27.424Z,995.44
2022-12-22T09:07:04.445Z,995.47
2022-12-22T09:07:45.065Z,995.46
2022-12-22T09:08:25.543Z,995.48
2022-12-22T09:09:06.081Z,995.48
2022-12-22T09:10:27.242Z,995.54
2022-12-22T09:11:07.838Z,995.56
2022-12-22T09:11:48.404Z,995.57
2022-12-22T09:12:28.928Z,995.61
2022-12-22T09:14:42.331Z,995.58
2022-12-22T09:15:23.139Z,995.61
2022-12-22T09:16:03.788Z,995.66
2022-12-22T09:16:45.135Z,995.67
2022-12-22T09:17:25.581Z,995.69
2022-12-22T09:18:06.208Z,995.66
2022-12-22T09:18:46.754Z,995.71
2022-12-22T09:19:27.328Z,995.7
2022-12-22T09:20:07.949Z,995.66
2022-12-22T09:20:48.406Z,995.61
2022-12-22T09:21:29.151Z,995.73
2022-12-22T09:22:19.235Z,995.8
2022-12-22T09:25:52.762Z,995.93
2022-12-22T09:26:36.731Z,995.98
2022-12-22T09:27:16.872Z,995.96
2022-12-22T09:27:57.918Z,995.96
2022-12-22T09:28:40.809Z,996.01
2022-12-22T09:29:21.118Z,996
2022-12-22T09:30:43.379Z,996.01
2022-12-22T09:31:24.590Z,996.02
2022-12-22T09:32:05.708Z,995.98
2022-12-22T09:32:46.745Z,996.01
2022-12-22T09:33:27.854Z,996.05
2022-12-22T09:34:13.429Z,996.04
2022-12-22T09:34:50.109Z,996.1
2022-12-22T09:35:31.145Z,996.04
2022-12-22T09:36:12.293Z,996.18
2022-12-22T09:36:53.406Z,996.19
2022-12-22T09:39:49.662Z,996.31
2022-12-22T09:40:29.540Z,996.32
2022-12-22T09:41:10.274Z,996.39
2022-12-22T09:41:50.904Z,996.37
2022-12-22T09:42:31.278Z,996.4
2022-12-22T09:43:11.807Z,996.44
2022-12-22T09:43:53.132Z,996.46
2022-12-22T09:44:33.629Z,996.45
2022-12-22T09:45:17.115Z,996.51
2022-12-22T09:45:54.884Z,996.47
2022-12-22T09:46:35.337Z,996.46
2022-12-22T09:47:15.881Z,996.47
2022-12-22T09:48:37.043Z,996.41
2022-12-22T09:49:17.615Z,996.44
2022-12-22T09:49:58.203Z,996.42
2022-12-22T09:50:38.756Z,996.41
2022-12-22T09:51:24.634Z,996.43
2022-12-22T09:52:01.422Z,996.46
2022-12-22T09:52:41.986Z,996.39
2022-12-22T09:53:23.524Z,996.4
2022-12-22T09:54:04.077Z,996.42
2022-12-22T09:54:44.693Z,996.44
2022-12-22T09:55:25.271Z,996.4
2022-12-22T09:56:05.812Z,996.4
2022-12-22T09:56:46.471Z,996.41
2022-12-22T09:57:27.124Z,996.39
2022-12-22T09:58:12.379Z,996.39
2022-12-22T09:58:49.463Z,996.38
2022-12-22T10:01:24.874Z,996.47
2022-12-22T10:02:05.508Z,996.51
2022-12-22T10:02:45.930Z,996.51
2022-12-22T10:03:26.382Z,996.48
2022-12-22T10:04:47.406Z,996.43
2022-12-22T10:05:28.002Z,996.44
2022-12-22T10:06:08.497Z,996.51
2022-12-22T10:06:49.061Z,996.5
2022-12-22T10:07:29.529Z,996.46
2022-12-22T10:08:10.143Z,996.45
2022-12-22T10:08:50.689Z,996.51
2022-12-22T10:09:50.003Z,996.52
2022-12-22T10:10:11.778Z,996.5
2022-12-22T10:10:52.403Z,996.5
2022-12-22T10:11:33.576Z,996.54
2022-12-22T10:12:14.308Z,996.58
2022-12-22T10:12:54.836Z,996.58